createdAt,value
2019-03-30T00:01:32.825Z,99.90
2019-03-30T00:04:00.007Z,99.90
2019-03-30T00:06:27.364Z,99.90
2019-03-30T00:08:54.824Z,99.90
2019-03-30T00:11:22.184Z,99.90
2019-03-30T00:13:49.804Z,99.90
2019-03-30T00:16:17.285Z,99.90
2019-03-30T00:18:44.908Z,99.90
2019-03-30T00:21:12.425Z,99.90
2019-03-30T00:23:39.564Z,99.90
2019-03-30T00:26:06.724Z,99.90
2019-03-30T00:28:33.967Z,99.90
2019-03-30T00:31:01.305Z,99.90
2019-03-30T00:35:56.423Z,99.90
2019-03-30T00:38:23.683Z,99.90
2019-03-30T00:40:51.042Z,99.90
2019-03-30T00:43:18.246Z,99.90
2019-03-30T00:45:45.623Z,99.90
2019-03-30T00:48:13.206Z,99.90
2019-03-30T00:50:40.446Z,99.90
2019-03-30T00:53:07.704Z,99.90
2019-03-30T00:55:35.064Z,99.90
2019-03-30T00:58:02.303Z,99.90
2019-03-30T01:00:29.938Z,99.90
2019-03-30T01:02:57.157Z,99.90
2019-03-30T01:05:24.347Z,99.90
2019-03-30T01:07:51.616Z,99.90
2019-03-30T01:10:18.904Z,99.90
2019-03-30T01:12:46.617Z,99.90
2019-03-30T01:15:14.179Z,99.90
2019-03-30T01:17:41.856Z,99.90
2019-03-30T01:20:09.496Z,99.90
2019-03-30T01:22:37.364Z,99.90
2019-03-30T01:25:07.317Z,99.90
2019-03-30T01:27:34.537Z,99.90
2019-03-30T01:30:01.778Z,99.90
2019-03-30T01:32:29.023Z,99.90
2019-03-30T01:34:56.457Z,99.90
2019-03-30T01:37:23.855Z,99.90
2019-03-30T01:39:51.295Z,99.90
2019-03-30T01:42:19.055Z,99.90
2019-03-30T01:44:46.335Z,99.90
2019-03-30T01:47:13.775Z,99.90
2019-03-30T01:49:41.073Z,99.90
2019-03-30T01:52:08.373Z,99.90
2019-03-30T01:54:36.054Z,99.90
2019-03-30T01:57:03.294Z,99.90
2019-03-30T01:59:30.514Z,99.90
2019-03-30T02:01:58.294Z,99.90
2019-03-30T02:04:25.775Z,99.90
2019-03-30T02:06:53.115Z,99.90
2019-03-30T02:09:20.475Z,99.90
2019-03-30T02:11:47.735Z,99.90
2019-03-30T02:14:14.975Z,99.90
2019-03-30T02:16:42.102Z,99.90
2019-03-30T02:19:10.015Z,99.90
2019-03-30T02:21:37.334Z,99.90
2019-03-30T02:24:04.796Z,99.90
2019-03-30T02:26:32.054Z,99.90
2019-03-30T02:29:00.022Z,99.90
2019-03-30T02:31:27.376Z,99.90
2019-03-30T02:36:25.077Z,99.90
2019-03-30T02:38:52.510Z,99.90
2019-03-30T02:41:19.841Z,99.90
2019-03-30T02:43:47.514Z,99.90
2019-03-30T02:46:14.780Z,99.90
2019-03-30T02:48:42.448Z,99.90
2019-03-30T02:51:09.792Z,99.90
2019-03-30T02:53:37.236Z,99.90
2019-03-30T02:56:04.637Z,99.90
2019-03-30T02:58:31.956Z,99.90
2019-03-30T03:00:59.616Z,99.90
2019-03-30T03:03:26.860Z,99.90
2019-03-30T03:05:54.534Z,99.90
2019-03-30T03:08:22.416Z,99.90
2019-03-30T03:10:49.955Z,99.90
2019-03-30T03:13:17.425Z,99.90
2019-03-30T03:15:44.616Z,99.90
2019-03-30T03:18:11.797Z,99.90
2019-03-30T03:20:39.056Z,99.90
2019-03-30T03:23:06.197Z,99.90
2019-03-30T03:25:33.457Z,99.90
2019-03-30T03:28:00.946Z,99.90
2019-03-30T03:30:28.475Z,99.90
2019-03-30T03:32:56.117Z,99.90
2019-03-30T03:35:23.386Z,99.90
2019-03-30T03:37:50.735Z,99.90
2019-03-30T03:40:18.193Z,99.90
2019-03-30T03:42:45.709Z,99.90
2019-03-30T03:45:13.712Z,99.90
2019-03-30T03:47:41.174Z,99.90
2019-03-30T03:50:30.235Z,99.90
2019-03-30T03:52:57.751Z,99.90
2019-03-30T03:55:25.452Z,99.90
2019-03-30T03:57:53.638Z,99.90
2019-03-30T04:00:42.466Z,99.90
2019-03-30T04:03:10.700Z,99.90
2019-03-30T04:05:42.512Z,99.90
2019-03-30T04:08:12.215Z,99.90
2019-03-30T04:10:40.612Z,99.90
2019-03-30T04:13:10.007Z,99.90
2019-03-30T04:15:37.283Z,99.90
2019-03-30T04:18:04.476Z,99.90
2019-03-30T04:20:31.638Z,99.90
2019-03-30T04:22:58.791Z,99.90
2019-03-30T04:25:26.233Z,99.90
2019-03-30T04:27:53.405Z,99.90
2019-03-30T04:30:20.652Z,99.90
2019-03-30T04:32:47.817Z,99.90
2019-03-30T04:35:15.034Z,99.90
2019-03-30T04:37:42.331Z,99.90
2019-03-30T04:40:09.743Z,99.90
2019-03-30T04:42:36.913Z,99.90
2019-03-30T04:45:06.051Z,99.90
2019-03-30T04:47:33.160Z,99.90
2019-03-30T04:50:00.626Z,99.90
2019-03-30T04:52:28.274Z,99.90
2019-03-30T04:54:55.431Z,99.90
2019-03-30T04:57:23.473Z,99.90
2019-03-30T04:59:50.672Z,99.90
2019-03-30T05:02:17.902Z,99.90
2019-03-30T05:04:46.059Z,99.90
2019-03-30T05:07:13.515Z,99.90
2019-03-30T05:09:40.778Z,99.90
2019-03-30T05:12:08.352Z,99.90
2019-03-30T05:14:35.575Z,99.90
2019-03-30T05:17:02.932Z,99.90
2019-03-30T05:19:30.576Z,99.90
2019-03-30T05:22:11.373Z,99.90
2019-03-30T05:24:27.252Z,99.90
2019-03-30T05:26:54.492Z,99.90
2019-03-30T05:29:21.753Z,99.90
2019-03-30T05:31:49.415Z,99.90
2019-03-30T05:34:16.612Z,99.90
2019-03-30T05:36:43.916Z,99.90
2019-03-30T05:39:11.102Z,99.90
2019-03-30T05:41:38.834Z,99.90
2019-03-30T05:44:06.172Z,99.90
2019-03-30T05:46:33.512Z,99.90
2019-03-30T05:49:00.814Z,99.90
2019-03-30T05:51:28.135Z,99.90
2019-03-30T05:53:55.574Z,99.90
2019-03-30T05:56:22.712Z,99.90
2019-03-30T05:58:50.032Z,99.90
2019-03-30T06:01:17.172Z,99.90
2019-03-30T06:03:44.393Z,99.90
2019-03-30T06:06:11.706Z,99.90
2019-03-30T06:08:38.991Z,99.90
2019-03-30T06:11:06.334Z,99.90
2019-03-30T06:13:33.791Z,99.90
2019-03-30T06:16:00.912Z,99.90
2019-03-30T06:18:28.419Z,99.90
2019-03-30T06:20:55.751Z,99.90
2019-03-30T06:23:22.953Z,99.90
2019-03-30T06:25:50.095Z,99.90
2019-03-30T06:28:17.572Z,99.90
2019-03-30T06:30:45.071Z,99.90
2019-03-30T06:33:22.460Z,99.90
2019-03-30T06:35:59.046Z,99.90
2019-03-30T06:38:27.057Z,99.90
2019-03-30T06:40:54.797Z,99.90
2019-03-30T06:43:22.422Z,99.90
2019-03-30T06:45:49.901Z,99.90
2019-03-30T06:48:17.394Z,99.90
2019-03-30T06:50:44.956Z,99.90
2019-03-30T06:53:12.355Z,99.90
2019-03-30T06:55:39.576Z,99.90
2019-03-30T06:58:06.725Z,99.90
2019-03-30T07:00:34.817Z,99.90
2019-03-30T07:03:05.945Z,99.90
2019-03-30T07:05:41.012Z,99.90
2019-03-30T07:08:14.310Z,99.90
2019-03-30T07:10:43.642Z,99.90
2019-03-30T07:13:12.018Z,99.90
2019-03-30T07:15:45.117Z,99.90
2019-03-30T07:18:13.919Z,99.90
2019-03-30T07:20:41.598Z,99.90
2019-03-30T07:23:12.385Z,99.90
2019-03-30T07:25:38.265Z,99.90
2019-03-30T07:28:05.501Z,99.90
2019-03-30T07:30:33.000Z,99.90
2019-03-30T07:33:00.322Z,99.90
2019-03-30T07:35:28.123Z,99.90
2019-03-30T07:37:55.407Z,99.90
2019-03-30T07:40:22.780Z,99.90
2019-03-30T07:42:50.439Z,99.90
2019-03-30T07:45:17.840Z,99.90
2019-03-30T07:47:45.127Z,99.90
2019-03-30T07:50:13.661Z,99.90
2019-03-30T07:52:40.901Z,99.90
2019-03-30T07:55:08.481Z,99.90
2019-03-30T07:57:36.202Z,99.90
2019-03-30T08:00:09.024Z,99.90
2019-03-30T08:05:06.260Z,99.90
2019-03-30T08:07:34.035Z,99.90
2019-03-30T08:10:01.280Z,99.90
2019-03-30T08:12:28.619Z,99.90
2019-03-30T08:14:56.000Z,99.90
2019-03-30T08:17:23.240Z,99.90
2019-03-30T08:19:50.585Z,99.90
2019-03-30T08:22:18.548Z,99.90
2019-03-30T08:24:46.460Z,99.90
2019-03-30T08:27:13.860Z,99.90
2019-03-30T08:29:40.980Z,99.90
2019-03-30T08:32:08.280Z,99.90
2019-03-30T08:34:35.620Z,99.90
2019-03-30T08:37:03.409Z,99.90
2019-03-30T08:39:30.746Z,99.90
2019-03-30T08:41:58.390Z,99.90
2019-03-30T08:44:25.666Z,99.90
2019-03-30T08:46:52.945Z,99.90
2019-03-30T08:49:20.365Z,99.90
2019-03-30T08:51:47.746Z,99.90
2019-03-30T08:54:14.968Z,99.90
2019-03-30T08:56:42.524Z,99.90
2019-03-30T08:59:09.925Z,99.90
2019-03-30T09:01:37.254Z,99.90
2019-03-30T09:04:04.583Z,99.90
2019-03-30T09:06:31.960Z,99.90
2019-03-30T09:08:59.300Z,99.90
2019-03-30T09:11:26.760Z,99.90
2019-03-30T09:13:54.123Z,99.90
2019-03-30T09:16:21.680Z,99.90
2019-03-30T09:19:08.685Z,99.90
2019-03-30T09:21:36.141Z,99.90
2019-03-30T09:24:09.807Z,99.90
2019-03-30T09:26:32.949Z,99.90
2019-03-30T09:29:00.362Z,99.90
2019-03-30T09:31:27.601Z,99.90
2019-03-30T09:33:54.941Z,99.90
2019-03-30T09:36:22.725Z,99.90
2019-03-30T09:38:50.565Z,99.90
2019-03-30T09:43:57.142Z,99.90
2019-03-30T09:46:24.611Z,99.90
2019-03-30T09:48:52.105Z,99.90
2019-03-30T09:51:19.524Z,99.90
2019-03-30T09:53:47.166Z,99.90
2019-03-30T09:56:14.686Z,99.90
2019-03-30T09:58:42.006Z,99.90
2019-03-30T10:01:09.205Z,99.90
2019-03-30T10:03:36.436Z,99.90
2019-03-30T10:06:03.836Z,99.90
2019-03-30T10:08:31.115Z,99.90
2019-03-30T10:10:58.555Z,99.90
2019-03-30T10:13:26.095Z,99.90
2019-03-30T10:15:53.798Z,99.90
2019-03-30T10:18:21.577Z,99.90
2019-03-30T10:20:48.995Z,99.90
2019-03-30T10:23:16.455Z,99.90
2019-03-30T10:25:43.916Z,99.90
2019-03-30T10:28:11.355Z,99.90
2019-03-30T10:30:58.497Z,99.90
2019-03-30T10:33:25.745Z,99.90
2019-03-30T10:35:53.188Z,99.90
2019-03-30T10:38:20.784Z,99.90
2019-03-30T10:40:47.951Z,99.90
2019-03-30T10:43:27.385Z,99.90
2019-03-30T10:45:54.564Z,99.90
2019-03-30T10:48:21.745Z,99.90
2019-03-30T10:50:48.924Z,99.90
2019-03-30T10:53:16.076Z,99.90
2019-03-30T10:55:43.185Z,99.90
2019-03-30T10:58:10.365Z,99.90
2019-03-30T11:00:40.451Z,99.90
2019-03-30T11:03:08.050Z,99.90
2019-03-30T11:05:35.344Z,99.90
2019-03-30T11:08:02.825Z,99.90
2019-03-30T11:10:30.185Z,99.90
2019-03-30T11:12:57.424Z,99.90
2019-03-30T11:15:24.924Z,99.90
2019-03-30T11:20:22.672Z,99.90
2019-03-30T11:22:50.813Z,99.90
2019-03-30T11:25:18.501Z,99.90
2019-03-30T11:27:46.171Z,99.90
2019-03-30T11:30:13.742Z,99.90
2019-03-30T11:32:41.465Z,99.90
2019-03-30T11:35:09.113Z,99.90
2019-03-30T11:37:36.383Z,99.90
2019-03-30T11:40:06.864Z,99.90
2019-03-30T11:42:34.355Z,99.90
2019-03-30T11:45:02.374Z,99.90
2019-03-30T11:47:29.805Z,99.90
2019-03-30T11:49:57.141Z,99.90
2019-03-30T11:52:24.338Z,99.90
2019-03-30T11:54:52.059Z,99.90
2019-03-30T11:57:19.612Z,99.90
2019-03-30T11:59:46.847Z,99.90
2019-03-30T12:02:27.207Z,99.90
2019-03-30T12:04:43.933Z,99.90
2019-03-30T12:07:11.443Z,99.90
2019-03-30T12:09:38.856Z,99.90
2019-03-30T12:12:06.403Z,99.90
2019-03-30T12:14:33.513Z,99.90
2019-03-30T12:17:01.053Z,99.90
2019-03-30T12:19:28.368Z,99.90
2019-03-30T12:21:56.343Z,99.90
2019-03-30T12:24:25.755Z,99.90
2019-03-30T12:26:55.488Z,99.90
2019-03-30T12:29:22.714Z,99.90
2019-03-30T12:31:50.043Z,99.90
2019-03-30T12:34:17.237Z,99.90
2019-03-30T12:36:44.516Z,99.90
2019-03-30T12:39:13.450Z,97.40
2019-03-30T12:41:40.700Z,98.40
2019-03-30T12:44:07.793Z,99.10
2019-03-30T12:46:34.991Z,99.90
2019-03-30T12:49:02.239Z,99.90
2019-03-30T12:51:30.211Z,99.60
2019-03-30T12:53:57.651Z,98.40
2019-03-30T12:56:24.990Z,98.20
2019-03-30T12:58:52.293Z,97.50
2019-03-30T13:01:19.751Z,97.40
2019-03-30T13:03:47.172Z,96.80
2019-03-30T13:06:14.633Z,96.50
2019-03-30T13:08:41.883Z,95.30
2019-03-30T13:11:09.172Z,94.10
2019-03-30T13:13:36.371Z,94.80
2019-03-30T13:16:03.734Z,92.10
2019-03-30T13:18:31.814Z,99.90
2019-03-30T13:20:59.279Z,93.10
2019-03-30T13:23:26.940Z,91.10
2019-03-30T13:26:03.382Z,94.70
2019-03-30T13:28:23.732Z,97.90
2019-03-30T13:30:51.449Z,92.10
2019-03-30T13:33:18.950Z,95.10
2019-03-30T13:35:46.258Z,93.00
2019-03-30T13:38:13.502Z,95.40
2019-03-30T13:40:40.863Z,96.70
2019-03-30T13:43:08.404Z,94.20
2019-03-30T13:45:35.884Z,88.10
2019-03-30T13:48:03.322Z,83.90
2019-03-30T13:50:31.357Z,91.00
2019-03-30T13:52:59.046Z,85.40
2019-03-30T13:55:26.416Z,90.80
2019-03-30T13:57:54.065Z,92.00
2019-03-30T14:00:21.367Z,84.60
2019-03-30T14:02:48.688Z,86.10
2019-03-30T14:05:16.227Z,91.40
2019-03-30T14:07:43.767Z,83.60
2019-03-30T14:10:13.210Z,82.60
2019-03-30T14:12:41.069Z,81.40
2019-03-30T14:15:09.498Z,80.40
2019-03-30T14:17:36.988Z,90.10
2019-03-30T14:20:06.592Z,90.60
2019-03-30T14:22:33.747Z,93.10
2019-03-30T14:25:01.007Z,90.60
2019-03-30T14:27:28.368Z,94.00
2019-03-30T14:29:55.501Z,92.70
2019-03-30T14:32:23.988Z,85.20
2019-03-30T14:34:51.468Z,83.00
2019-03-30T14:37:19.008Z,91.70
2019-03-30T14:39:46.570Z,86.30
2019-03-30T14:42:14.215Z,80.80
2019-03-30T14:44:41.467Z,80.10
2019-03-30T14:47:09.049Z,86.20
2019-03-30T14:49:36.292Z,88.00
2019-03-30T14:52:03.948Z,83.00
2019-03-30T14:54:31.407Z,85.00
2019-03-30T14:56:58.647Z,90.10
2019-03-30T14:59:26.092Z,90.60
2019-03-30T15:01:53.559Z,84.50
2019-03-30T15:04:21.519Z,86.80
2019-03-30T15:06:48.702Z,80.60
2019-03-30T15:09:16.143Z,77.10
2019-03-30T15:11:43.340Z,80.50
2019-03-30T15:14:10.551Z,77.80
2019-03-30T15:16:37.766Z,75.50
2019-03-30T15:19:04.942Z,74.70
2019-03-30T15:21:32.196Z,76.50
2019-03-30T15:23:59.395Z,79.60
2019-03-30T15:26:26.875Z,76.90
2019-03-30T15:28:54.056Z,78.10
2019-03-30T15:31:21.274Z,72.60
2019-03-30T15:33:48.834Z,72.10
2019-03-30T15:36:16.002Z,72.20
2019-03-30T15:38:43.213Z,80.80
2019-03-30T15:41:10.399Z,78.50
2019-03-30T15:43:38.862Z,82.20
2019-03-30T15:46:06.581Z,78.50
2019-03-30T15:48:33.672Z,80.70
2019-03-30T15:51:00.851Z,77.70
2019-03-30T15:53:28.214Z,74.80
2019-03-30T15:55:55.439Z,76.50
2019-03-30T15:58:22.591Z,78.70
2019-03-30T16:00:49.811Z,72.10
2019-03-30T16:03:16.891Z,70.70
2019-03-30T16:05:44.151Z,76.50
2019-03-30T16:08:11.271Z,74.90
2019-03-30T16:10:38.474Z,73.20
2019-03-30T16:13:05.592Z,75.40
2019-03-30T16:15:32.751Z,74.10
2019-03-30T16:18:00.014Z,72.60
2019-03-30T16:20:27.247Z,75.70
2019-03-30T16:22:54.472Z,73.20
2019-03-30T16:25:21.728Z,74.60
2019-03-30T16:27:49.031Z,73.30
2019-03-30T16:30:17.248Z,75.30
2019-03-30T16:32:44.479Z,75.80
2019-03-30T16:35:11.636Z,74.90
2019-03-30T16:37:38.873Z,75.50
2019-03-30T16:40:06.612Z,76.20
2019-03-30T16:42:33.823Z,75.80
2019-03-30T16:45:01.003Z,77.20
2019-03-30T16:47:28.150Z,77.40
2019-03-30T16:49:55.303Z,76.50
2019-03-30T16:52:23.495Z,78.30
2019-03-30T16:54:50.998Z,78.50
2019-03-30T16:57:18.091Z,80.70
2019-03-30T16:59:45.261Z,79.70
2019-03-30T17:02:12.694Z,79.80
2019-03-30T17:04:39.794Z,80.80
2019-03-30T17:07:06.992Z,83.10
2019-03-30T17:09:34.191Z,85.30
2019-03-30T17:12:01.471Z,89.80
2019-03-30T17:14:28.559Z,91.60
2019-03-30T17:16:55.796Z,93.20
2019-03-30T17:19:23.013Z,94.20
2019-03-30T17:21:50.112Z,95.20
2019-03-30T17:24:17.339Z,95.30
2019-03-30T17:26:44.504Z,95.00
2019-03-30T17:29:11.765Z,95.50
2019-03-30T17:31:38.964Z,97.50
2019-03-30T17:34:06.141Z,99.30
2019-03-30T17:36:33.392Z,99.90
2019-03-30T17:39:00.693Z,99.90
2019-03-30T17:41:28.282Z,99.90
2019-03-30T17:43:57.200Z,99.90
2019-03-30T17:46:24.361Z,99.90
2019-03-30T17:48:51.681Z,99.90
2019-03-30T17:51:18.822Z,99.90
2019-03-30T17:53:46.297Z,99.90
2019-03-30T17:56:13.458Z,99.90
2019-03-30T17:58:40.638Z,99.90
2019-03-30T18:01:07.922Z,99.90
2019-03-30T18:03:35.496Z,99.90
2019-03-30T18:06:02.634Z,99.90
2019-03-30T18:08:29.813Z,99.90
2019-03-30T18:10:56.975Z,99.90
2019-03-30T18:13:24.173Z,99.90
2019-03-30T18:15:51.274Z,99.90
2019-03-30T18:18:18.402Z,99.90
2019-03-30T18:20:45.506Z,99.90
2019-03-30T18:23:12.669Z,99.90
2019-03-30T18:25:39.926Z,99.90
2019-03-30T18:28:07.466Z,99.90
2019-03-30T18:30:38.761Z,99.90
2019-03-30T18:33:06.638Z,99.90
2019-03-30T18:35:34.145Z,99.90
2019-03-30T18:38:04.465Z,99.90
2019-03-30T18:40:32.868Z,99.90
2019-03-30T18:43:19.866Z,99.90
2019-03-30T18:45:47.105Z,99.90
2019-03-30T18:48:16.409Z,99.90
2019-03-30T18:50:45.102Z,99.90
2019-03-30T18:53:14.049Z,99.90
2019-03-30T18:55:41.222Z,99.90
2019-03-30T18:58:08.417Z,99.90
2019-03-30T19:00:35.590Z,99.90
2019-03-30T19:03:02.689Z,99.90
2019-03-30T19:05:29.952Z,99.90
2019-03-30T19:07:57.129Z,99.90
2019-03-30T19:12:51.479Z,99.90
2019-03-30T19:15:18.640Z,99.90
2019-03-30T19:17:46.200Z,99.90
2019-03-30T19:20:13.498Z,99.90
2019-03-30T19:22:40.637Z,99.90
2019-03-30T19:25:08.382Z,99.90
2019-03-30T19:27:35.589Z,99.90
2019-03-30T19:30:06.639Z,99.90
2019-03-30T19:32:33.897Z,99.90
2019-03-30T19:35:01.120Z,99.90
2019-03-30T19:37:28.398Z,99.90
2019-03-30T19:39:55.558Z,99.90
2019-03-30T19:44:50.147Z,99.90
2019-03-30T19:47:18.117Z,99.90
2019-03-30T19:49:45.478Z,99.90
2019-03-30T19:52:12.877Z,99.90
2019-03-30T19:54:40.418Z,99.90
2019-03-30T19:57:07.677Z,99.90
2019-03-30T19:59:35.081Z,99.90
2019-03-30T20:02:02.482Z,99.90
2019-03-30T20:04:29.537Z,99.90
2019-03-30T20:06:57.049Z,99.90
2019-03-30T20:09:24.219Z,99.90
2019-03-30T20:11:51.751Z,99.90
2019-03-30T20:14:18.949Z,99.90
2019-03-30T20:16:46.535Z,99.90
2019-03-30T20:19:13.718Z,99.90
2019-03-30T20:21:40.930Z,99.90
2019-03-30T20:24:08.116Z,99.90
2019-03-30T20:26:35.477Z,99.90
2019-03-30T20:29:03.197Z,99.90
2019-03-30T20:31:30.544Z,99.90
2019-03-30T20:33:57.898Z,99.90
2019-03-30T20:36:25.080Z,99.90
2019-03-30T20:38:52.236Z,99.90
2019-03-30T20:43:47.408Z,99.90
2019-03-30T20:46:14.557Z,99.90
2019-03-30T20:48:42.079Z,99.90
2019-03-30T20:51:09.257Z,99.90
2019-03-30T20:53:36.459Z,99.90
2019-03-30T20:56:03.878Z,99.90
2019-03-30T20:58:30.984Z,99.90
2019-03-30T21:00:58.341Z,99.90
2019-03-30T21:03:25.580Z,99.90
2019-03-30T21:05:52.802Z,99.90
2019-03-30T21:08:20.062Z,99.90
2019-03-30T21:10:47.860Z,99.90
2019-03-30T21:13:15.080Z,99.90
2019-03-30T21:15:42.194Z,99.90
2019-03-30T21:18:10.102Z,99.90
2019-03-30T21:20:37.556Z,99.90
2019-03-30T21:23:04.881Z,99.90
2019-03-30T21:25:32.443Z,99.90
2019-03-30T21:28:00.023Z,99.90
2019-03-30T21:30:27.782Z,99.90
2019-03-30T21:32:55.081Z,99.90
2019-03-30T21:35:22.670Z,99.90
2019-03-30T21:37:49.868Z,99.90
2019-03-30T21:40:17.098Z,99.90
2019-03-30T21:42:44.361Z,99.90
2019-03-30T21:45:12.620Z,99.90
2019-03-30T21:47:39.880Z,99.90
2019-03-30T21:50:07.684Z,99.90
2019-03-30T21:52:35.780Z,99.90
2019-03-30T21:55:04.412Z,99.90
2019-03-30T21:57:31.747Z,99.90
2019-03-30T22:00:09.640Z,99.90
2019-03-30T22:02:28.417Z,99.90
2019-03-30T22:04:55.780Z,99.90
2019-03-30T22:07:23.136Z,99.90
2019-03-30T22:09:51.196Z,99.90
2019-03-30T22:12:18.708Z,99.90
2019-03-30T22:14:46.958Z,99.90
2019-03-30T22:17:14.237Z,99.90
2019-03-30T22:19:41.912Z,99.90
2019-03-30T22:22:29.234Z,99.90
2019-03-30T22:24:56.693Z,99.90
2019-03-30T22:27:23.953Z,99.90
2019-03-30T22:29:51.412Z,99.90
2019-03-30T22:32:18.942Z,99.90
2019-03-30T22:34:46.723Z,99.90
2019-03-30T22:37:14.502Z,99.90
2019-03-30T22:39:41.862Z,99.90
2019-03-30T22:42:09.411Z,99.90
2019-03-30T22:44:37.482Z,99.90
2019-03-30T22:47:04.607Z,99.90
2019-03-30T22:49:32.123Z,99.90
2019-03-30T22:51:59.422Z,99.90
2019-03-30T22:54:26.602Z,99.90
2019-03-30T22:56:54.042Z,99.90
2019-03-30T22:59:21.325Z,99.90
2019-03-30T23:01:48.650Z,99.90
2019-03-30T23:04:15.884Z,99.90
2019-03-30T23:06:43.150Z,99.90
2019-03-30T23:09:11.485Z,99.90
2019-03-30T23:11:39.072Z,99.90
2019-03-30T23:14:06.270Z,99.90
2019-03-30T23:19:00.130Z,99.90
2019-03-30T23:21:27.793Z,99.90
2019-03-30T23:23:55.331Z,99.90
2019-03-30T23:26:22.574Z,99.90
2019-03-30T23:28:50.370Z,99.90
2019-03-30T23:31:17.614Z,99.90
2019-03-30T23:33:44.850Z,99.90
2019-03-30T23:36:12.111Z,99.90
2019-03-30T23:38:39.250Z,99.90
2019-03-30T23:41:06.654Z,99.90
2019-03-30T23:43:34.249Z,99.90
2019-03-30T23:46:01.813Z,99.90
2019-03-30T23:48:29.369Z,99.90
2019-03-30T23:50:56.629Z,99.90
2019-03-30T23:53:23.889Z,99.90
2019-03-30T23:55:51.451Z,99.90
2019-03-30T23:58:18.906Z,99.90
